Time;durP1;ratioP1;P1;durP2;ratioP2;P2;SDS_P1;SDS_P2;PMS_P1;PMS_P2;Temp;Humidity;BMP_temperature;BMP_pressure;BME280_temperature;BME280_humidity;BME280_pressure;Samples;Min_cycle;Max_cycle;Signal;HPM_P1;HPM_P2
2023/07/22 00:00:35;;;;;;;8.43;7.18;;;15.90;99.90;;;;;;2093393;28;20025;-71
2023/07/22 00:01:36;;;;;;;10.73;8.23;;;15.90;99.90;;;;;;2095276;28;20135;-71
2023/07/22 00:02:38;;;;;;;8.30;7.45;;;15.90;99.90;;;;;;2094416;28;20020;-71
2023/07/22 00:03:38;;;;;;;8.93;8.02;;;15.90;99.90;;;;;;2092024;28;20039;-71
2023/07/22 00:04:39;;;;;;;10.60;8.80;;;15.90;99.90;;;;;;2091755;28;20036;-71
2023/07/22 00:05:40;;;;;;;9.93;8.93;;;15.90;99.90;;;;;;2092439;28;20381;-71
2023/07/22 00:06:40;;;;;;;10.02;8.98;;;15.90;99.90;;;;;;2094722;28;20020;-71
2023/07/22 00:07:41;;;;;;;11.77;8.75;;;15.90;99.90;;;;;;2096883;28;20027;-71
2023/07/22 00:08:42;;;;;;;8.30;7.43;;;15.90;99.90;;;;;;2093155;28;20021;-71
2023/07/22 00:09:43;;;;;;;10.40;9.02;;;15.90;99.90;;;;;;2092052;28;20025;-71
2023/07/22 00:10:43;;;;;;;9.48;8.52;;;15.90;99.90;;;;;;2094325;28;20021;-71
2023/07/22 00:11:44;;;;;;;10.48;8.50;;;15.90;99.90;;;;;;2091232;28;20028;-71
2023/07/22 00:12:44;;;;;;;10.02;8.98;;;15.90;99.90;;;;;;2092004;28;20021;-71
2023/07/22 00:13:45;;;;;;;10.13;8.27;;;15.90;99.90;;;;;;2092927;28;20686;-71
2023/07/22 00:14:46;;;;;;;8.95;8.02;;;15.90;99.90;;;;;;2094935;28;20041;-71
2023/07/22 00:15:46;;;;;;;9.27;8.05;;;15.90;99.90;;;;;;2091642;28;20098;-71
2023/07/22 00:16:47;;;;;;;9.32;8.32;;;15.90;99.90;;;;;;2092128;28;20103;-71
2023/07/22 00:17:48;;;;;;;8.45;7.65;;;15.90;99.90;;;;;;2092808;28;20469;-71
2023/07/22 00:18:49;;;;;;;11.82;8.93;;;15.90;99.90;;;;;;2091448;28;20063;-71
2023/07/22 00:19:50;;;;;;;9.13;8.23;;;15.90;99.90;;;;;;2091765;28;20036;-71
2023/07/22 00:20:51;;;;;;;9.73;8.20;;;15.90;99.90;;;;;;2093391;28;20059;-71
2023/07/22 00:21:52;;;;;;;9.88;8.32;;;15.90;99.90;;;;;;2092411;28;20108;-71
2023/07/22 00:22:52;;;;;;;9.55;8.65;;;15.90;99.90;;;;;;2094577;28;20028;-71
2023/07/22 00:23:53;;;;;;;9.38;8.13;;;15.90;99.90;;;;;;2092784;28;20029;-71
2023/07/22 00:24:53;;;;;;;9.50;8.48;;;15.90;99.90;;;;;;2092765;28;20767;-71
2023/07/22 00:25:54;;;;;;;8.55;7.75;;;16.00;99.90;;;;;;2092653;28;20108;-71
2023/07/22 00:26:54;;;;;;;10.93;8.30;;;15.90;99.90;;;;;;2093112;28;20036;-71
2023/07/22 00:27:57;;;;;;;10.90;9.02;;;15.90;99.90;;;;;;2092044;28;20029;-71
2023/07/22 00:28:57;;;;;;;9.38;8.48;;;16.00;99.90;;;;;;2090659;28;20028;-71
2023/07/22 00:29:58;;;;;;;9.13;8.32;;;15.90;99.90;;;;;;2092735;28;20039;-71
2023/07/22 00:30:58;;;;;;;10.07;8.88;;;15.90;99.90;;;;;;2093627;28;20036;-71
2023/07/22 00:31:59;;;;;;;8.80;7.90;;;15.90;99.90;;;;;;2093082;28;20032;-71
2023/07/22 00:32:59;;;;;;;9.13;8.32;;;15.90;99.90;;;;;;2093482;28;20495;-71
2023/07/22 00:34:00;;;;;;;10.07;7.97;;;16.00;99.90;;;;;;2094001;28;20119;-71
2023/07/22 00:35:01;;;;;;;10.10;8.90;;;16.00;99.90;;;;;;2094786;28;20025;-71
2023/07/22 00:36:01;;;;;;;9.57;8.68;;;16.00;99.90;;;;;;2093128;28;20040;-71
2023/07/22 00:37:02;;;;;;;10.15;9.05;;;16.00;99.90;;;;;;2092374;28;20025;-71
2023/07/22 00:38:03;;;;;;;9.73;8.73;;;16.00;99.90;;;;;;2090665;28;20028;-71
2023/07/22 00:39:05;;;;;;;9.25;8.35;;;16.00;99.90;;;;;;2092019;28;20558;-71
2023/07/22 00:40:11;;;;;;;9.93;8.77;;;16.00;99.90;;;;;;2092549;28;20032;-71
2023/07/22 00:41:12;;;;;;;9.50;8.60;;;16.00;99.90;;;;;;2092720;28;20765;-71
2023/07/22 00:42:12;;;;;;;9.10;7.78;;;16.00;99.90;;;;;;2093509;28;20666;-71
2023/07/22 00:43:13;;;;;;;9.40;8.60;;;16.00;99.90;;;;;;2093882;28;20024;-71
2023/07/22 00:44:14;;;;;;;10.02;9.02;;;16.00;99.90;;;;;;2092857;28;20104;-71
2023/07/22 00:45:14;;;;;;;10.90;8.93;;;16.00;99.90;;;;;;2091916;28;20032;-71
2023/07/22 00:46:15;;;;;;;8.77;7.88;;;16.00;99.90;;;;;;2093163;28;20021;-71
2023/07/22 00:47:17;;;;;;;9.73;7.82;;;16.00;99.90;;;;;;2092677;28;20106;-71
2023/07/22 00:48:19;;;;;;;9.73;8.32;;;16.00;99.90;;;;;;2092003;28;20021;-71
2023/07/22 00:49:19;;;;;;;9.93;8.70;;;16.10;99.90;;;;;;2092277;28;20364;-71
2023/07/22 00:50:22;;;;;;;9.73;8.65;;;16.00;99.90;;;;;;2092125;28;20051;-71
2023/07/22 00:51:23;;;;;;;11.23;9.35;;;16.00;99.90;;;;;;2094320;28;20025;-71
2023/07/22 00:52:23;;;;;;;10.27;8.65;;;16.10;99.90;;;;;;2093114;28;20021;-71
2023/07/22 00:53:24;;;;;;;10.27;8.85;;;16.10;99.90;;;;;;2093090;28;20025;-71
2023/07/22 00:54:25;;;;;;;9.25;8.35;;;16.10;99.90;;;;;;2093883;28;20590;-71
2023/07/22 00:55:26;;;;;;;9.45;8.55;;;16.00;99.90;;;;;;2090795;28;20358;-71
2023/07/22 00:56:27;;;;;;;9.90;8.90;;;16.10;99.90;;;;;;2092548;28;20048;-71
2023/07/22 00:57:28;;;;;;;12.18;9.45;;;16.10;99.90;;;;;;2094274;28;20017;-71
2023/07/22 00:58:28;;;;;;;10.18;9.20;;;16.10;99.90;;;;;;2093454;28;20071;-71
2023/07/22 00:59:30;;;;;;;9.85;8.65;;;16.10;99.90;;;;;;2092687;28;20113;-71
2023/07/22 01:00:30;;;;;;;10.80;9.00;;;16.10;99.90;;;;;;2091532;28;20417;-71
2023/07/22 01:01:31;;;;;;;9.77;8.77;;;16.10;99.90;;;;;;2094773;28;20025;-71
2023/07/22 01:02:32;;;;;;;9.80;8.80;;;16.10;99.90;;;;;;2094397;28;20071;-71
2023/07/22 01:03:32;;;;;;;12.52;9.55;;;16.10;99.90;;;;;;2092141;28;20024;-71
2023/07/22 01:04:35;;;;;;;9.90;8.90;;;16.10;99.90;;;;;;2094673;28;20027;-71
2023/07/22 01:05:36;;;;;;;8.80;7.90;;;16.10;99.90;;;;;;2094514;28;20024;-71
2023/07/22 01:06:37;;;;;;;11.50;9.40;;;16.10;99.90;;;;;;2091940;28;20024;-71
2023/07/22 01:07:38;;;;;;;10.07;9.02;;;16.10;99.90;;;;;;2093754;28;20051;-71
2023/07/22 01:08:39;;;;;;;9.82;8.75;;;16.10;99.90;;;;;;2093076;28;20902;-71
2023/07/22 01:09:41;;;;;;;11.07;9.00;;;16.10;99.90;;;;;;2093404;28;20055;-71
2023/07/22 01:10:42;;;;;;;11.05;9.63;;;16.10;99.90;;;;;;2093885;28;20060;-71
2023/07/22 01:11:42;;;;;;;9.82;8.73;;;16.10;99.90;;;;;;2093761;28;20507;-71
2023/07/22 01:12:44;;;;;;;9.35;7.65;;;16.10;99.90;;;;;;2093379;28;20024;-71
2023/07/22 01:13:45;;;;;;;14.10;9.05;;;16.10;99.90;;;;;;2092582;28;20024;-71
2023/07/22 01:14:45;;;;;;;9.80;8.23;;;16.10;99.90;;;;;;2091903;28;20028;-71
2023/07/22 01:15:46;;;;;;;10.60;9.52;;;16.10;99.90;;;;;;2093276;28;20514;-71
2023/07/22 01:16:47;;;;;;;9.90;8.90;;;16.10;99.90;;;;;;2091629;28;20078;-71
2023/07/22 01:17:48;;;;;;;10.40;9.30;;;16.10;99.90;;;;;;2092385;28;20020;-71
2023/07/22 01:18:49;;;;;;;10.60;9.50;;;16.10;99.90;;;;;;2091141;28;20028;-71
2023/07/22 01:19:50;;;;;;;10.93;9.30;;;16.10;99.90;;;;;;2091018;28;20093;-71
2023/07/22 01:20:51;;;;;;;10.30;9.13;;;16.10;99.90;;;;;;2090322;28;20033;-71
2023/07/22 01:21:53;;;;;;;10.45;8.40;;;16.10;99.90;;;;;;2091469;28;20499;-71
2023/07/22 01:22:54;;;;;;;11.15;8.75;;;16.10;99.90;;;;;;2091923;28;20536;-71
2023/07/22 01:23:55;;;;;;;9.48;8.35;;;16.10;99.90;;;;;;2094997;28;20056;-71
2023/07/22 01:24:56;;;;;;;9.30;8.40;;;16.10;99.90;;;;;;2092230;28;20032;-71
2023/07/22 01:25:57;;;;;;;8.68;7.75;;;16.10;99.90;;;;;;2092179;28;20091;-71
2023/07/22 01:26:58;;;;;;;10.60;8.65;;;16.20;99.90;;;;;;2092964;28;20021;-71
2023/07/22 01:27:58;;;;;;;9.80;8.82;;;16.10;99.90;;;;;;2093992;28;20492;-71
2023/07/22 01:29:04;;;;;;;10.32;8.27;;;16.10;99.90;;;;;;2093275;28;20071;-71
2023/07/22 01:30:06;;;;;;;9.88;8.88;;;16.10;99.90;;;;;;2092095;28;20028;-71
2023/07/22 01:31:07;;;;;;;10.02;9.02;;;16.10;99.90;;;;;;2092737;28;20016;-71
2023/07/22 01:32:07;;;;;;;9.15;7.55;;;16.10;99.90;;;;;;2092753;28;20040;-71
2023/07/22 01:33:08;;;;;;;9.90;8.90;;;16.20;99.90;;;;;;2094649;28;20029;-71
2023/07/22 01:34:08;;;;;;;9.02;8.13;;;16.10;99.90;;;;;;2093749;28;20086;-71
2023/07/22 01:35:09;;;;;;;9.88;8.85;;;16.10;99.90;;;;;;2093091;28;20102;-71
2023/07/22 01:36:10;;;;;;;9.13;8.23;;;16.10;99.90;;;;;;2092588;28;20053;-71
2023/07/22 01:37:10;;;;;;;10.15;8.20;;;16.10;99.90;;;;;;2094578;28;20020;-71
2023/07/22 01:38:11;;;;;;;10.02;8.65;;;16.20;99.90;;;;;;2092434;28;20032;-71
2023/07/22 01:39:11;;;;;;;12.05;9.93;;;16.10;99.90;;;;;;2092646;28;20824;-71
2023/07/22 01:40:12;;;;;;;9.45;8.35;;;16.20;99.90;;;;;;2091516;28;20025;-71
2023/07/22 01:41:13;;;;;;;8.98;7.70;;;16.10;99.90;;;;;;2092961;28;20025;-71
2023/07/22 01:42:13;;;;;;;8.80;7.90;;;16.10;99.90;;;;;;2091448;28;20086;-71
2023/07/22 01:43:14;;;;;;;9.50;8.52;;;16.20;99.90;;;;;;2095897;28;20024;-71
2023/07/22 01:44:14;;;;;;;9.68;8.65;;;16.10;99.90;;;;;;2094696;28;20397;-71
2023/07/22 01:45:15;;;;;;;8.85;7.95;;;16.10;99.90;;;;;;2093248;28;20021;-71
2023/07/22 01:46:16;;;;;;;10.35;8.95;;;16.10;99.90;;;;;;2092922;28;20021;-70
2023/07/22 01:47:17;;;;;;;9.85;8.38;;;16.10;99.90;;;;;;2092555;28;20108;-71
2023/07/22 01:48:17;;;;;;;9.43;8.52;;;16.10;99.90;;;;;;2092944;28;20075;-71
2023/07/22 01:49:18;;;;;;;11.35;9.10;;;16.10;99.90;;;;;;2093897;28;20036;-71
2023/07/22 01:50:18;;;;;;;9.18;8.20;;;16.10;99.90;;;;;;2090463;28;20423;-71
2023/07/22 01:51:19;;;;;;;10.48;8.70;;;16.10;99.90;;;;;;2091512;28;20021;-71
2023/07/22 01:52:20;;;;;;;9.63;7.78;;;16.10;99.90;;;;;;2092076;28;20039;-70
2023/07/22 01:53:20;;;;;;;9.13;8.23;;;16.10;99.90;;;;;;2092241;28;20024;-70
2023/07/22 01:54:21;;;;;;;9.35;8.35;;;16.10;99.90;;;;;;2095683;28;20016;-70
2023/07/22 01:55:21;;;;;;;9.65;8.75;;;16.10;99.90;;;;;;2093584;28;20024;-70
2023/07/22 01:56:22;;;;;;;8.85;7.95;;;16.10;99.90;;;;;;2091517;28;20023;-71
2023/07/22 01:57:23;;;;;;;9.55;8.32;;;16.10;99.90;;;;;;2091643;28;20013;-71
2023/07/22 01:58:23;;;;;;;9.98;8.90;;;16.10;99.90;;;;;;2092343;28;20094;-71
2023/07/22 01:59:24;;;;;;;9.25;8.25;;;16.20;99.90;;;;;;2090742;28;20078;-70
2023/07/22 02:00:24;;;;;;;8.88;8.02;;;16.10;99.90;;;;;;2091965;28;20028;-71
2023/07/22 02:01:25;;;;;;;10.48;7.88;;;16.10;99.90;;;;;;2093156;28;20024;-70
2023/07/22 02:02:26;;;;;;;12.07;9.13;;;16.10;99.90;;;;;;2092834;28;20085;-70
2023/07/22 02:03:27;;;;;;;10.30;8.57;;;16.20;99.90;;;;;;2091426;28;20109;-70
2023/07/22 02:04:27;;;;;;;9.55;8.65;;;16.20;99.90;;;;;;2093032;28;20020;-70
2023/07/22 02:05:29;;;;;;;9.20;8.10;;;16.20;99.90;;;;;;2090634;28;20112;-70
2023/07/22 02:06:30;;;;;;;9.25;8.43;;;16.20;99.90;;;;;;2091643;28;20039;-71
2023/07/22 02:07:31;;;;;;;8.50;7.63;;;16.20;99.90;;;;;;2091104;28;20017;-71
2023/07/22 02:08:32;;;;;;;8.98;8.13;;;16.20;99.90;;;;;;2091766;28;20013;-70
2023/07/22 02:09:33;;;;;;;9.77;7.53;;;16.20;99.90;;;;;;2092004;28;20017;-70
2023/07/22 02:10:33;;;;;;;10.65;8.20;;;16.20;99.90;;;;;;2090619;28;20025;-71
2023/07/22 02:11:37;;;;;;;9.85;7.90;;;16.20;99.90;;;;;;2091718;28;20063;-71
2023/07/22 02:12:37;;;;;;;9.68;8.38;;;16.20;99.90;;;;;;2093836;28;20031;-71
2023/07/22 02:13:38;;;;;;;9.13;8.23;;;16.20;99.90;;;;;;2092705;28;20055;-70
2023/07/22 02:14:38;;;;;;;8.20;7.43;;;16.20;99.90;;;;;;2091552;28;20027;-70
2023/07/22 02:15:41;;;;;;;9.05;8.15;;;16.20;99.90;;;;;;2091208;28;20021;-71
2023/07/22 02:16:42;;;;;;;10.35;8.00;;;16.20;99.90;;;;;;2091638;28;20015;-70
2023/07/22 02:17:43;;;;;;;9.05;7.53;;;16.20;99.90;;;;;;2092532;28;20021;-71
2023/07/22 02:18:43;;;;;;;8.25;7.45;;;16.20;99.90;;;;;;2091414;28;20021;-71
2023/07/22 02:19:44;;;;;;;9.27;8.35;;;16.20;99.90;;;;;;2091610;28;20033;-71
2023/07/22 02:20:44;;;;;;;9.13;8.23;;;16.20;99.90;;;;;;2092574;28;20028;-71
2023/07/22 02:21:45;;;;;;;8.75;7.88;;;16.20;99.90;;;;;;2092066;28;20017;-70
2023/07/22 02:22:45;;;;;;;8.50;7.53;;;16.20;99.90;;;;;;2093088;28;20538;-70
2023/07/22 02:23:46;;;;;;;10.80;8.23;;;16.20;99.90;;;;;;2091874;28;20032;-70
2023/07/22 02:24:46;;;;;;;8.57;7.78;;;16.20;99.90;;;;;;2090411;28;20029;-71
2023/07/22 02:25:51;;;;;;;9.20;8.20;;;16.20;99.90;;;;;;2092002;28;20889;-71
2023/07/22 02:26:51;;;;;;;9.30;7.75;;;16.20;99.90;;;;;;2092224;28;20167;-71
2023/07/22 02:27:52;;;;;;;8.10;7.40;;;16.20;99.90;;;;;;2090408;28;20020;-71
2023/07/22 02:28:52;;;;;;;8.15;7.35;;;16.20;99.90;;;;;;2092121;28;20032;-70
2023/07/22 02:29:53;;;;;;;8.98;8.07;;;16.20;99.90;;;;;;2091061;28;20055;-70
2023/07/22 02:30:54;;;;;;;8.85;7.93;;;16.20;99.90;;;;;;2092029;28;20067;-71
2023/07/22 02:31:54;;;;;;;9.43;8.20;;;16.20;99.90;;;;;;2091976;28;20048;-70
2023/07/22 02:32:55;;;;;;;8.40;7.50;;;16.20;99.90;;;;;;2091434;28;20046;-71
2023/07/22 02:33:55;;;;;;;10.23;8.00;;;16.20;99.90;;;;;;2092809;28;20794;-70
2023/07/22 02:34:56;;;;;;;9.98;8.15;;;16.20;99.90;;;;;;2092569;28;20040;-70
2023/07/22 02:35:56;;;;;;;9.77;8.32;;;16.20;99.90;;;;;;2091140;28;20373;-70
2023/07/22 02:36:57;;;;;;;9.32;8.35;;;16.20;99.90;;;;;;2093125;28;20061;-70
2023/07/22 02:37:57;;;;;;;11.48;8.63;;;16.30;99.90;;;;;;2093110;28;20047;-70
2023/07/22 02:38:58;;;;;;;8.25;7.45;;;16.20;99.90;;;;;;2092922;28;20051;-70
2023/07/22 02:39:58;;;;;;;13.48;8.27;;;16.20;99.90;;;;;;2091138;28;20064;-70
2023/07/22 02:41:07;;;;;;;8.15;7.38;;;16.20;99.90;;;;;;2092058;28;20054;-70
2023/07/22 02:42:08;;;;;;;8.13;7.32;;;16.20;99.90;;;;;;2093581;28;20045;-71
2023/07/22 02:43:08;;;;;;;11.10;7.45;;;16.20;99.90;;;;;;2093280;28;20437;-71
2023/07/22 02:44:09;;;;;;;9.57;8.15;;;16.20;99.90;;;;;;2091752;28;20081;-71
2023/07/22 02:45:10;;;;;;;9.90;7.88;;;16.20;99.90;;;;;;2092903;28;20031;-71
2023/07/22 02:46:11;;;;;;;9.73;7.55;;;16.20;99.90;;;;;;2091070;28;20445;-71
2023/07/22 02:47:11;;;;;;;7.78;6.78;;;16.20;99.90;;;;;;2092248;28;20016;-71
2023/07/22 02:48:12;;;;;;;10.50;7.70;;;16.20;99.90;;;;;;2091234;28;20127;-70
2023/07/22 02:49:12;;;;;;;9.45;8.15;;;16.20;99.90;;;;;;2090461;28;20021;-71
2023/07/22 02:50:13;;;;;;;11.98;8.73;;;16.20;99.90;;;;;;2092451;28;20013;-71
2023/07/22 02:51:13;;;;;;;8.63;7.72;;;16.20;99.90;;;;;;2090467;28;20036;-71
2023/07/22 02:52:14;;;;;;;9.57;8.32;;;16.20;99.90;;;;;;2090222;28;20098;-70
2023/07/22 02:53:14;;;;;;;11.77;8.57;;;16.20;99.90;;;;;;2091365;28;20040;-70
2023/07/22 02:54:15;;;;;;;10.50;7.97;;;16.20;99.90;;;;;;2091587;28;20475;-70
2023/07/22 02:55:20;;;;;;;9.20;8.38;;;16.20;99.90;;;;;;2092127;28;20137;-71
2023/07/22 02:56:20;;;;;;;10.15;8.13;;;16.20;99.90;;;;;;2091871;28;20052;-71
2023/07/22 02:57:21;;;;;;;11.70;8.65;;;16.20;99.90;;;;;;2091381;28;20024;-71
2023/07/22 02:58:21;;;;;;;9.35;7.65;;;16.20;99.90;;;;;;2092983;28;20108;-71
2023/07/22 02:59:22;;;;;;;10.48;8.85;;;16.20;99.90;;;;;;2092384;28;20521;-71
2023/07/22 03:00:25;;;;;;;9.25;8.25;;;16.20;99.90;;;;;;2088304;28;20361;-71
2023/07/22 03:01:26;;;;;;;10.45;8.15;;;16.20;99.90;;;;;;2092084;28;20464;-71
2023/07/22 03:02:26;;;;;;;11.63;8.50;;;16.20;99.90;;;;;;2093416;28;20372;-71
2023/07/22 03:03:27;;;;;;;12.18;8.73;;;16.20;99.90;;;;;;2092737;28;20036;-71
2023/07/22 03:04:27;;;;;;;8.43;7.68;;;16.30;99.90;;;;;;2091552;28;20484;-71
2023/07/22 03:05:29;;;;;;;12.55;8.10;;;16.20;99.90;;;;;;2090381;28;20021;-71
2023/07/22 03:06:31;;;;;;;10.00;8.88;;;16.30;99.90;;;;;;2091608;28;20021;-70
2023/07/22 03:07:31;;;;;;;10.68;8.75;;;16.30;99.90;;;;;;2091967;28;20100;-70
2023/07/22 03:08:32;;;;;;;10.10;8.55;;;16.30;99.90;;;;;;2091797;28;20024;-70
2023/07/22 03:09:32;;;;;;;12.20;8.75;;;16.20;99.90;;;;;;2092845;28;20772;-70
2023/07/22 03:10:33;;;;;;;10.23;8.25;;;16.30;99.90;;;;;;2090242;28;20088;-70
2023/07/22 03:11:34;;;;;;;8.50;7.70;;;16.20;99.90;;;;;;2093298;28;20763;-70
2023/07/22 03:12:36;;;;;;;8.32;7.53;;;16.30;99.90;;;;;;2091502;28;20020;-71
2023/07/22 03:13:36;;;;;;;9.38;8.45;;;16.30;99.90;;;;;;2091785;28;20021;-71
2023/07/22 03:14:37;;;;;;;10.93;8.93;;;16.30;99.90;;;;;;2091994;28;20078;-71
2023/07/22 03:15:37;;;;;;;10.73;8.10;;;16.30;99.90;;;;;;2090078;28;20044;-70
2023/07/22 03:16:38;;;;;;;9.48;8.35;;;16.30;99.90;;;;;;2092139;28;20024;-71
2023/07/22 03:17:41;;;;;;;9.35;8.40;;;16.30;99.90;;;;;;2094946;28;20469;-71
2023/07/22 03:18:43;;;;;;;10.38;9.05;;;16.30;99.90;;;;;;2091821;28;20009;-71
2023/07/22 03:19:43;;;;;;;10.23;8.50;;;16.30;99.90;;;;;;2091577;28;20013;-71
2023/07/22 03:20:44;;;;;;;11.05;9.15;;;16.40;99.90;;;;;;2091991;28;20139;-71
2023/07/22 03:21:44;;;;;;;10.27;8.43;;;16.30;99.90;;;;;;2092503;28;20031;-71
2023/07/22 03:22:46;;;;;;;9.13;8.13;;;16.40;99.90;;;;;;2093400;28;20029;-71
2023/07/22 03:23:46;;;;;;;10.23;7.88;;;16.40;99.90;;;;;;2091146;28;20103;-71
2023/07/22 03:24:47;;;;;;;9.52;7.88;;;16.30;99.90;;;;;;2092330;28;20029;-71
2023/07/22 03:25:48;;;;;;;11.85;8.55;;;16.40;99.90;;;;;;2092056;28;20473;-70
2023/07/22 03:26:49;;;;;;;10.30;7.90;;;16.40;99.90;;;;;;2091500;28;20021;-70
2023/07/22 03:27:49;;;;;;;9.43;8.43;;;16.40;99.90;;;;;;2092753;28;20082;-71
2023/07/22 03:28:50;;;;;;;9.18;8.10;;;16.40;99.90;;;;;;2090880;28;20150;-71
2023/07/22 03:29:50;;;;;;;9.18;8.27;;;16.40;99.90;;;;;;2093017;28;20032;-71
2023/07/22 03:30:51;;;;;;;9.35;8.45;;;16.40;99.90;;;;;;2092831;28;20121;-71
2023/07/22 03:31:51;;;;;;;8.88;8.07;;;16.40;99.90;;;;;;2090601;28;20041;-71
2023/07/22 03:32:52;;;;;;;11.93;8.30;;;16.40;99.90;;;;;;2091452;28;20040;-71
2023/07/22 03:33:52;;;;;;;12.45;8.30;;;16.40;99.90;;;;;;2092283;28;20028;-70
2023/07/22 03:34:53;;;;;;;9.98;8.77;;;16.40;99.90;;;;;;2091807;28;20027;-71
2023/07/22 03:35:53;;;;;;;9.98;8.38;;;16.40;99.90;;;;;;2091906;28;20029;-71
2023/07/22 03:36:54;;;;;;;11.60;9.00;;;16.40;99.90;;;;;;2091598;28;20040;-71
2023/07/22 03:37:55;;;;;;;10.20;8.25;;;16.40;99.90;;;;;;2090755;28;20572;-71
2023/07/22 03:38:55;;;;;;;9.77;8.70;;;16.40;99.90;;;;;;2092347;28;20108;-70
2023/07/22 03:39:56;;;;;;;9.23;8.23;;;16.40;99.90;;;;;;2089372;28;20419;-70
2023/07/22 03:40:56;;;;;;;9.18;8.27;;;16.40;99.90;;;;;;2090898;28;20070;-70
2023/07/22 03:41:57;;;;;;;9.70;8.70;;;16.40;99.90;;;;;;2092391;28;20597;-70
2023/07/22 03:42:58;;;;;;;9.48;8.38;;;16.40;99.90;;;;;;2089794;28;20020;-70
2023/07/22 03:43:58;;;;;;;10.23;8.23;;;16.50;99.90;;;;;;2092956;28;20025;-71
2023/07/22 03:44:59;;;;;;;10.68;8.18;;;16.40;99.90;;;;;;2091336;28;20036;-71
2023/07/22 03:45:59;;;;;;;10.88;8.40;;;16.40;99.90;;;;;;2093142;28;20021;-71
2023/07/22 03:47:00;;;;;;;8.82;7.95;;;16.40;99.90;;;;;;2092303;28;20029;-71
2023/07/22 03:48:00;;;;;;;10.15;8.63;;;16.40;99.90;;;;;;2090505;28;20029;-70
2023/07/22 03:49:01;;;;;;;11.10;8.25;;;16.50;99.90;;;;;;2092666;28;20084;-71
2023/07/22 03:50:02;;;;;;;9.50;8.48;;;16.40;99.90;;;;;;2092039;28;20095;-71
2023/07/22 03:51:03;;;;;;;10.25;7.88;;;16.50;99.90;;;;;;2091923;28;20052;-71
2023/07/22 03:52:04;;;;;;;10.07;8.98;;;16.40;99.90;;;;;;2089489;28;20035;-71
2023/07/22 03:53:04;;;;;;;9.00;7.93;;;16.50;99.90;;;;;;2091984;28;20086;-70
2023/07/22 03:54:05;;;;;;;10.02;8.40;;;16.50;99.90;;;;;;2093610;28;20071;-70
2023/07/22 03:55:06;;;;;;;8.40;7.65;;;16.50;99.90;;;;;;2092876;28;20032;-71
2023/07/22 03:56:06;;;;;;;9.20;8.00;;;16.50;99.90;;;;;;2092926;28;20052;-71
2023/07/22 03:57:07;;;;;;;9.63;8.27;;;16.50;99.90;;;;;;2089368;28;20115;-71
2023/07/22 03:58:07;;;;;;;10.15;9.02;;;16.50;99.90;;;;;;2092616;28;20044;-71
2023/07/22 03:59:08;;;;;;;9.60;8.07;;;16.50;99.90;;;;;;2092438;28;20016;-71
2023/07/22 04:00:09;;;;;;;9.23;8.30;;;16.50;99.90;;;;;;2092368;28;20697;-71
2023/07/22 04:01:13;;;;;;;9.85;7.60;;;16.50;99.90;;;;;;2091789;28;20019;-71
2023/07/22 04:02:13;;;;;;;14.63;8.77;;;16.60;99.90;;;;;;2091550;28;20818;-71
2023/07/22 04:03:14;;;;;;;10.43;8.50;;;16.50;99.90;;;;;;2090301;28;20446;-71
2023/07/22 04:04:14;;;;;;;8.82;7.93;;;16.60;99.90;;;;;;2092186;28;20118;-71
2023/07/22 04:05:15;;;;;;;10.63;7.95;;;16.60;99.90;;;;;;2091635;28;20500;-71
2023/07/22 04:06:15;;;;;;;9.38;8.32;;;16.60;99.90;;;;;;2091861;28;20117;-71
2023/07/22 04:07:16;;;;;;;12.75;8.48;;;16.60;99.90;;;;;;2091235;28;20129;-71
2023/07/22 04:08:16;;;;;;;8.95;8.02;;;16.60;99.90;;;;;;2093275;28;20025;-71
2023/07/22 04:09:17;;;;;;;10.15;8.38;;;16.60;99.90;;;;;;2089366;28;20020;-71
2023/07/22 04:10:17;;;;;;;11.07;7.47;;;16.60;99.90;;;;;;2090271;28;20103;-71
2023/07/22 04:11:18;;;;;;;9.93;8.00;;;16.60;99.90;;;;;;2092514;28;20028;-71
2023/07/22 04:12:18;;;;;;;9.70;7.97;;;16.70;99.90;;;;;;2090105;28;20571;-71
2023/07/22 04:13:19;;;;;;;8.00;7.28;;;16.70;99.90;;;;;;2090428;28;20021;-71
2023/07/22 04:14:19;;;;;;;9.10;8.20;;;16.70;99.90;;;;;;2092947;28;20032;-71
2023/07/22 04:15:20;;;;;;;9.90;7.90;;;16.70;99.90;;;;;;2089766;28;20028;-71
2023/07/22 04:16:21;;;;;;;8.48;7.43;;;16.70;99.90;;;;;;2092065;28;20733;-71
2023/07/22 04:17:21;;;;;;;8.32;7.50;;;16.70;99.90;;;;;;2090391;28;20027;-71
2023/07/22 04:18:22;;;;;;;10.88;7.63;;;16.70;99.90;;;;;;2091521;28;20040;-71
2023/07/22 04:19:22;;;;;;;8.60;7.22;;;16.70;99.90;;;;;;2093122;28;20502;-71
2023/07/22 04:20:24;;;;;;;8.10;7.30;;;16.70;99.90;;;;;;2091112;28;20028;-71
2023/07/22 04:21:25;;;;;;;8.65;7.78;;;16.70;99.90;;;;;;2091078;28;20028;-71
2023/07/22 04:22:25;;;;;;;10.95;8.25;;;16.70;99.90;;;;;;2090823;28;20500;-71
2023/07/22 04:23:27;;;;;;;9.32;7.57;;;16.70;99.90;;;;;;2091019;28;20009;-71
2023/07/22 04:24:28;;;;;;;8.88;7.95;;;16.70;99.90;;;;;;2090730;28;20021;-71
2023/07/22 04:25:28;;;;;;;9.50;7.20;;;16.70;99.90;;;;;;2089891;28;20074;-71
2023/07/22 04:26:29;;;;;;;8.32;7.53;;;16.70;99.90;;;;;;2090893;28;20447;-71
2023/07/22 04:27:29;;;;;;;9.65;8.25;;;16.70;99.90;;;;;;2092567;28;20028;-71
2023/07/22 04:28:30;;;;;;;11.02;8.80;;;16.70;99.90;;;;;;2090093;28;20423;-71
2023/07/22 04:29:31;;;;;;;8.95;7.82;;;16.80;99.90;;;;;;2090826;28;20021;-71
2023/07/22 04:30:31;;;;;;;8.50;7.55;;;16.80;99.90;;;;;;2090448;28;20021;-71
2023/07/22 04:31:34;;;;;;;8.07;7.35;;;16.80;99.90;;;;;;2089760;28;20013;-71
2023/07/22 04:32:34;;;;;;;9.27;7.97;;;16.80;99.90;;;;;;2090019;28;20033;-71
2023/07/22 04:33:35;;;;;;;9.63;7.97;;;16.80;99.90;;;;;;2091329;28;20032;-71
2023/07/22 04:34:35;;;;;;;7.93;7.13;;;16.80;99.90;;;;;;2090631;28;20479;-71
2023/07/22 04:35:38;;;;;;;8.65;7.22;;;16.80;99.90;;;;;;2091031;28;20025;-71
2023/07/22 04:36:39;;;;;;;8.13;6.80;;;16.80;99.90;;;;;;2091146;28;20009;-71
2023/07/22 04:37:39;;;;;;;9.65;7.68;;;16.80;99.90;;;;;;2093573;28;20021;-71
2023/07/22 04:38:40;;;;;;;8.75;7.55;;;16.80;99.90;;;;;;2094703;28;20489;-71
2023/07/22 04:39:40;;;;;;;8.20;7.32;;;16.80;99.90;;;;;;2092667;28;20036;-71
2023/07/22 04:40:44;;;;;;;9.70;6.70;;;16.80;99.90;;;;;;2092031;28;20108;-71
2023/07/22 04:41:45;;;;;;;8.23;7.43;;;16.80;99.90;;;;;;2091274;28;20070;-71
2023/07/22 04:42:46;;;;;;;8.98;7.10;;;16.80;99.90;;;;;;2092117;28;20037;-71
2023/07/22 04:43:47;;;;;;;11.65;7.35;;;16.80;99.90;;;;;;2096309;28;20040;-71
2023/07/22 04:44:48;;;;;;;7.38;6.55;;;16.80;99.90;;;;;;2096127;28;20063;-71
2023/07/22 04:45:49;;;;;;;9.77;7.60;;;16.80;99.90;;;;;;2091797;28;20516;-71
2023/07/22 04:46:49;;;;;;;11.55;7.53;;;16.80;99.90;;;;;;2093325;28;20356;-71
2023/07/22 04:47:50;;;;;;;10.75;6.75;;;16.80;99.90;;;;;;2093840;28;20083;-71
2023/07/22 04:48:55;;;;;;;11.15;7.20;;;16.90;99.90;;;;;;2094536;28;20032;-71
2023/07/22 04:49:55;;;;;;;9.43;7.15;;;16.90;99.90;;;;;;2092622;28;20043;-71
2023/07/22 04:50:56;;;;;;;11.13;6.70;;;16.90;99.90;;;;;;2091938;28;20024;-71
2023/07/22 04:51:56;;;;;;;8.23;7.07;;;16.90;99.90;;;;;;2091898;28;20127;-71
2023/07/22 04:52:57;;;;;;;7.82;7.03;;;16.90;99.90;;;;;;2092803;28;20028;-71
2023/07/22 04:53:57;;;;;;;8.68;7.22;;;16.90;99.90;;;;;;2091853;28;20024;-71
2023/07/22 04:54:58;;;;;;;7.68;6.82;;;16.90;99.90;;;;;;2095601;28;20060;-71
2023/07/22 04:55:59;;;;;;;8.95;8.00;;;16.90;99.90;;;;;;2094524;28;20477;-71
2023/07/22 04:56:59;;;;;;;8.05;7.25;;;16.90;99.90;;;;;;2094622;28;20074;-71
2023/07/22 04:58:00;;;;;;;9.25;7.72;;;17.00;99.90;;;;;;2093413;28;20028;-71
2023/07/22 04:59:00;;;;;;;8.10;7.30;;;17.00;99.90;;;;;;2093096;28;20032;-71
2023/07/22 05:00:03;;;;;;;7.63;6.68;;;17.00;99.90;;;;;;2093974;28;20111;-71
2023/07/22 05:01:04;;;;;;;7.60;6.78;;;17.00;99.90;;;;;;2092460;28;20025;-71
2023/07/22 05:02:05;;;;;;;9.32;7.25;;;17.00;99.90;;;;;;2091243;28;20040;-71
2023/07/22 05:03:05;;;;;;;8.57;7.25;;;17.00;99.90;;;;;;2091864;28;20029;-71
2023/07/22 05:04:06;;;;;;;8.35;7.38;;;17.00;99.90;;;;;;2092883;28;20024;-71
2023/07/22 05:05:07;;;;;;;8.15;7.35;;;17.00;99.90;;;;;;2092279;28;20025;-71
2023/07/22 05:06:08;;;;;;;9.35;6.57;;;17.10;99.90;;;;;;2092192;28;20068;-71
2023/07/22 05:07:09;;;;;;;7.60;6.90;;;17.10;99.90;;;;;;2094051;28;20031;-71
2023/07/22 05:08:09;;;;;;;8.52;7.72;;;17.10;99.90;;;;;;2093404;28;20028;-71
2023/07/22 05:09:10;;;;;;;8.52;7.05;;;17.10;99.90;;;;;;2092847;28;20024;-71
2023/07/22 05:10:12;;;;;;;7.57;6.65;;;17.10;99.90;;;;;;2091759;28;20016;-71
2023/07/22 05:11:12;;;;;;;7.43;6.60;;;17.10;99.90;;;;;;2092000;28;20025;-71
2023/07/22 05:12:13;;;;;;;7.75;7.03;;;17.20;99.90;;;;;;2090646;28;20021;-71
2023/07/22 05:13:13;;;;;;;9.32;7.22;;;17.20;99.90;;;;;;2092912;28;20067;-71
2023/07/22 05:14:14;;;;;;;9.18;6.55;;;17.20;99.90;;;;;;2092961;28;20040;-71
2023/07/22 05:15:15;;;;;;;9.10;6.70;;;17.20;99.90;;;;;;2091397;28;20381;-71